createdAt,value
2018-07-30T00:00:10.816Z,55.00
2018-07-30T00:02:45.354Z,55.60
2018-07-30T00:05:14.251Z,55.70
2018-07-30T00:07:43.139Z,55.70
2018-07-30T00:10:11.578Z,55.80
2018-07-30T00:15:08.428Z,56.00
2018-07-30T00:17:37.058Z,56.20
2018-07-30T00:20:05.491Z,56.50
2018-07-30T00:22:34.038Z,56.50
2018-07-30T00:25:02.467Z,56.80
2018-07-30T00:27:30.991Z,56.70
2018-07-30T00:29:59.398Z,56.60
2018-07-30T00:34:55.967Z,56.80
2018-07-30T00:37:24.387Z,56.90
2018-07-30T00:39:52.794Z,56.90
2018-07-30T00:42:21.939Z,57.00
2018-07-30T00:44:51.001Z,57.40
2018-07-30T00:47:20.146Z,57.30
2018-07-30T00:49:48.869Z,57.10
2018-07-30T00:52:17.360Z,57.00
2018-07-30T00:54:45.793Z,57.50
2018-07-30T00:57:14.210Z,57.60
2018-07-30T00:59:42.513Z,57.90
2018-07-30T01:02:10.988Z,58.40
2018-07-30T01:04:39.407Z,58.80
2018-07-30T01:07:07.935Z,59.30
2018-07-30T01:09:36.375Z,59.70
2018-07-30T01:12:04.828Z,60.00
2018-07-30T01:14:33.231Z,59.80
2018-07-30T01:17:01.625Z,60.50
2018-07-30T01:19:30.019Z,60.00
2018-07-30T01:21:58.391Z,60.70
2018-07-30T01:24:26.805Z,60.90
2018-07-30T01:26:56.261Z,61.20
2018-07-30T01:29:24.693Z,61.50
2018-07-30T01:31:53.141Z,61.80
2018-07-30T01:34:22.649Z,62.00
2018-07-30T01:36:51.533Z,61.80
2018-07-30T01:39:20.678Z,60.20
2018-07-30T01:41:49.894Z,60.70
2018-07-30T01:44:18.265Z,60.90
2018-07-30T01:46:46.713Z,60.70
2018-07-30T01:49:15.068Z,61.60
2018-07-30T01:51:43.519Z,62.20
2018-07-30T01:54:11.970Z,61.50
2018-07-30T01:56:40.431Z,62.10
2018-07-30T01:59:08.781Z,61.90
2018-07-30T02:01:37.194Z,62.60
2018-07-30T02:04:05.666Z,62.90
2018-07-30T02:06:34.142Z,63.00
2018-07-30T02:09:02.888Z,62.60
2018-07-30T02:11:31.351Z,62.80
2018-07-30T02:13:59.740Z,63.20
2018-07-30T02:16:28.239Z,63.00
2018-07-30T02:18:56.696Z,62.70
2018-07-30T02:21:25.242Z,63.20
2018-07-30T02:23:53.710Z,63.50
2018-07-30T02:26:22.103Z,63.60
2018-07-30T02:28:50.476Z,64.10
2018-07-30T02:31:18.957Z,63.80
2018-07-30T02:36:15.504Z,64.10
2018-07-30T02:38:43.827Z,63.70
2018-07-30T02:41:12.691Z,64.10
2018-07-30T02:43:41.095Z,63.80
2018-07-30T02:46:09.483Z,64.20
2018-07-30T02:48:38.202Z,64.40
2018-07-30T02:51:07.698Z,64.40
2018-07-30T02:53:36.454Z,65.20
2018-07-30T02:56:04.968Z,64.70
2018-07-30T02:58:33.348Z,64.50
2018-07-30T03:01:01.858Z,64.80
2018-07-30T03:03:30.256Z,64.80
2018-07-30T03:05:59.097Z,64.90
2018-07-30T03:08:28.076Z,65.50
2018-07-30T03:10:57.733Z,65.40
2018-07-30T03:13:27.221Z,65.30
2018-07-30T03:15:56.233Z,64.80
2018-07-30T03:18:24.629Z,64.60
2018-07-30T03:20:54.201Z,64.90
2018-07-30T03:23:23.103Z,65.10
2018-07-30T03:25:51.601Z,65.50
2018-07-30T03:28:19.967Z,65.30
2018-07-30T03:30:49.416Z,65.60
2018-07-30T03:33:17.798Z,65.50
2018-07-30T03:35:46.238Z,65.00
2018-07-30T03:38:14.644Z,64.80
2018-07-30T03:40:43.134Z,65.00
2018-07-30T03:43:11.500Z,65.20
2018-07-30T03:45:40.218Z,66.20
2018-07-30T03:48:09.023Z,66.20
2018-07-30T03:50:38.613Z,66.30
2018-07-30T03:53:07.312Z,65.60
2018-07-30T03:55:35.797Z,65.50
2018-07-30T03:58:04.397Z,65.60
2018-07-30T04:00:32.979Z,65.50
2018-07-30T04:03:01.326Z,66.20
2018-07-30T04:05:29.802Z,65.90
2018-07-30T04:07:58.295Z,66.80
2018-07-30T04:10:27.675Z,66.60
2018-07-30T04:12:56.202Z,66.70
2018-07-30T04:15:24.654Z,66.80
2018-07-30T04:17:52.994Z,66.80
2018-07-30T04:20:21.476Z,66.80
2018-07-30T04:22:50.329Z,67.80
2018-07-30T04:25:18.784Z,68.20
2018-07-30T04:27:47.159Z,68.30
2018-07-30T04:30:15.647Z,67.70
2018-07-30T04:32:44.022Z,68.10
2018-07-30T04:35:12.454Z,68.20
2018-07-30T04:37:40.831Z,68.10
2018-07-30T04:40:09.358Z,68.30
2018-07-30T04:42:37.779Z,69.00
2018-07-30T04:45:06.266Z,69.30
2018-07-30T04:47:34.794Z,69.70
2018-07-30T04:50:03.592Z,69.90
2018-07-30T04:52:31.981Z,69.50
2018-07-30T04:55:00.393Z,69.40
2018-07-30T04:57:29.128Z,70.10
2018-07-30T04:59:58.350Z,69.60
2018-07-30T05:02:27.472Z,69.50
2018-07-30T05:04:56.207Z,69.60
2018-07-30T05:07:24.598Z,70.30
2018-07-30T05:09:53.405Z,69.80
2018-07-30T05:12:21.751Z,69.90
2018-07-30T05:14:50.158Z,70.10
2018-07-30T05:17:18.608Z,70.40
2018-07-30T05:19:47.111Z,70.40
2018-07-30T05:22:15.513Z,70.30
2018-07-30T05:24:43.983Z,70.50
2018-07-30T05:27:12.374Z,70.70
2018-07-30T05:32:08.963Z,70.80
2018-07-30T05:34:37.316Z,70.70
2018-07-30T05:37:05.701Z,70.70
2018-07-30T05:39:34.299Z,70.80
2018-07-30T05:42:03.009Z,70.80
2018-07-30T05:44:31.463Z,70.90
2018-07-30T05:46:59.786Z,70.10
2018-07-30T05:49:28.486Z,69.90
2018-07-30T05:51:57.890Z,69.30
2018-07-30T05:54:26.985Z,69.30
2018-07-30T05:56:55.749Z,69.20
2018-07-30T05:59:24.137Z,68.50
2018-07-30T06:01:52.730Z,69.00
2018-07-30T06:04:21.279Z,68.40
2018-07-30T06:06:49.658Z,68.60
2018-07-30T06:09:18.077Z,69.90
2018-07-30T06:11:46.448Z,69.40
2018-07-30T06:14:14.954Z,68.60
2018-07-30T06:16:43.291Z,68.40
2018-07-30T06:19:11.754Z,68.40
2018-07-30T06:21:40.146Z,68.50
2018-07-30T06:24:08.760Z,68.60
2018-07-30T06:26:37.135Z,69.20
2018-07-30T06:29:05.643Z,69.10
2018-07-30T06:31:33.998Z,69.30
2018-07-30T06:34:02.433Z,68.30
2018-07-30T06:36:30.859Z,68.00
2018-07-30T06:38:59.282Z,67.30
2018-07-30T06:41:28.243Z,67.80
2018-07-30T06:43:56.656Z,69.80
2018-07-30T06:46:25.482Z,70.20
2018-07-30T06:48:53.979Z,68.90
2018-07-30T06:51:22.329Z,68.50
2018-07-30T06:53:50.799Z,68.50
2018-07-30T06:56:19.330Z,68.30
2018-07-30T06:58:47.748Z,67.70
2018-07-30T07:01:16.164Z,67.50
2018-07-30T07:03:44.964Z,67.50
2018-07-30T07:06:13.370Z,67.60
2018-07-30T07:08:41.815Z,67.70
2018-07-30T07:11:10.897Z,67.90
2018-07-30T07:13:39.373Z,67.50
2018-07-30T07:16:08.191Z,67.60
2018-07-30T07:18:36.626Z,67.30
2018-07-30T07:21:05.087Z,67.30
2018-07-30T07:23:33.584Z,68.20
2018-07-30T07:26:01.996Z,68.00
2018-07-30T07:28:30.425Z,68.60
2018-07-30T07:30:58.834Z,68.30
2018-07-30T07:33:27.271Z,67.90
2018-07-30T07:35:56.350Z,67.90
2018-07-30T07:38:24.868Z,68.00
2018-07-30T07:40:53.696Z,67.90
2018-07-30T07:43:22.513Z,67.50
2018-07-30T07:45:50.879Z,67.80
2018-07-30T07:48:19.315Z,67.60
2018-07-30T07:50:48.173Z,68.00
2018-07-30T07:53:16.920Z,67.20
2018-07-30T07:55:45.735Z,67.30
2018-07-30T07:58:14.299Z,67.20
2018-07-30T08:00:42.760Z,66.90
2018-07-30T08:03:11.474Z,66.60
2018-07-30T08:05:40.208Z,66.90
2018-07-30T08:08:08.974Z,67.50
2018-07-30T08:10:37.339Z,67.60
2018-07-30T08:13:06.286Z,67.50
2018-07-30T08:15:34.777Z,67.10
2018-07-30T08:18:03.478Z,66.60
2018-07-30T08:20:31.922Z,65.90
2018-07-30T08:26:02.954Z,64.00
2018-07-30T08:28:31.739Z,64.90
2018-07-30T08:32:25.225Z,64.40
2018-07-30T08:34:53.566Z,64.10
2018-07-30T08:37:22.005Z,63.40
2018-07-30T08:39:50.444Z,62.10
2018-07-30T08:42:18.851Z,61.80
2018-07-30T08:44:47.557Z,62.10
2018-07-30T08:47:16.006Z,63.20
2018-07-30T08:49:44.506Z,63.20
2018-07-30T08:52:13.503Z,63.00
2018-07-30T08:54:42.004Z,62.90
2018-07-30T08:57:10.470Z,62.70
2018-07-30T08:59:40.198Z,62.20
2018-07-30T09:02:08.596Z,63.10
2018-07-30T09:04:37.476Z,63.20
2018-07-30T09:07:05.917Z,62.40
2018-07-30T09:09:35.010Z,62.50
2018-07-30T09:12:03.462Z,62.10
2018-07-30T09:14:31.970Z,61.70
2018-07-30T09:17:01.026Z,61.50
2018-07-30T09:19:29.548Z,61.10
2018-07-30T09:21:58.551Z,62.20
2018-07-30T09:24:27.751Z,61.30
2018-07-30T09:26:56.802Z,60.90
2018-07-30T09:29:25.321Z,61.10
2018-07-30T09:31:53.723Z,59.80
2018-07-30T09:34:22.191Z,59.60
2018-07-30T09:36:50.601Z,59.30
2018-07-30T09:39:19.137Z,58.80
2018-07-30T09:41:47.690Z,57.30
2018-07-30T09:44:16.170Z,58.00
2018-07-30T09:46:44.639Z,52.50
2018-07-30T09:49:13.242Z,55.70
2018-07-30T09:51:41.784Z,54.70
2018-07-30T09:54:10.318Z,53.10
2018-07-30T09:56:38.730Z,55.00
2018-07-30T09:59:07.564Z,56.40
2018-07-30T10:01:35.993Z,55.90
2018-07-30T10:04:04.526Z,56.30
2018-07-30T10:06:33.013Z,56.20
2018-07-30T10:09:01.535Z,55.90
2018-07-30T10:11:30.041Z,55.80
2018-07-30T10:13:58.728Z,55.40
2018-07-30T10:16:27.190Z,56.10
2018-07-30T10:18:56.225Z,56.20
2018-07-30T10:21:24.707Z,56.60
2018-07-30T10:23:53.229Z,56.10
2018-07-30T10:26:21.728Z,56.60
2018-07-30T10:28:50.299Z,56.30
2018-07-30T10:31:18.846Z,52.60
2018-07-30T10:33:47.576Z,55.50
2018-07-30T10:36:16.099Z,53.60
2018-07-30T10:38:44.622Z,54.10
2018-07-30T10:41:13.449Z,53.60
2018-07-30T10:43:41.952Z,54.10
2018-07-30T10:46:10.564Z,53.60
2018-07-30T10:48:39.008Z,53.70
2018-07-30T10:51:07.605Z,54.60
2018-07-30T10:53:35.967Z,53.70
2018-07-30T10:56:04.416Z,54.50
2018-07-30T10:58:32.894Z,53.40
2018-07-30T11:01:02.428Z,50.80
2018-07-30T11:03:31.019Z,52.00
2018-07-30T11:05:59.452Z,50.00
2018-07-30T11:08:27.920Z,49.60
2018-07-30T11:10:56.999Z,51.20
2018-07-30T11:13:26.109Z,50.60
2018-07-30T11:15:54.788Z,52.00
2018-07-30T11:18:24.041Z,52.60
2018-07-30T11:20:52.487Z,52.90
2018-07-30T11:23:20.904Z,52.80
2018-07-30T11:25:49.285Z,52.90
2018-07-30T11:28:18.083Z,52.70
2018-07-30T11:30:46.680Z,52.20
2018-07-30T11:33:15.253Z,52.60
2018-07-30T11:35:43.791Z,52.30
2018-07-30T11:38:12.174Z,52.50
2018-07-30T11:40:41.678Z,52.10
2018-07-30T11:43:10.090Z,51.90
2018-07-30T11:45:39.471Z,51.80
2018-07-30T11:48:08.479Z,51.60
2018-07-30T11:50:37.891Z,51.30
2018-07-30T11:53:06.441Z,51.40
2018-07-30T11:55:34.867Z,52.50
2018-07-30T11:58:03.206Z,51.80
2018-07-30T12:03:00.002Z,51.60
2018-07-30T12:05:28.375Z,47.80
2018-07-30T12:07:57.262Z,50.70
2018-07-30T12:10:27.646Z,50.30
2018-07-30T12:12:56.266Z,49.20
2018-07-30T12:15:24.693Z,47.50
2018-07-30T12:17:53.094Z,45.70
2018-07-30T12:20:21.919Z,45.00
2018-07-30T12:22:50.330Z,45.60
2018-07-30T12:25:18.765Z,44.80
2018-07-30T12:27:47.235Z,45.00
2018-07-30T12:30:15.797Z,45.40
2018-07-30T12:32:44.296Z,46.50
2018-07-30T12:35:13.789Z,47.50
2018-07-30T12:37:42.167Z,45.60
2018-07-30T12:40:10.591Z,48.10
2018-07-30T12:42:38.993Z,47.50
2018-07-30T12:45:07.792Z,49.00
2018-07-30T12:47:36.147Z,48.20
2018-07-30T12:50:05.076Z,48.70
2018-07-30T12:52:33.472Z,49.50
2018-07-30T12:55:02.966Z,48.40
2018-07-30T12:57:31.494Z,47.30
2018-07-30T12:59:59.933Z,47.20
2018-07-30T13:02:28.440Z,48.00
2018-07-30T13:04:57.742Z,47.40
2018-07-30T13:07:27.976Z,47.50
2018-07-30T13:09:57.353Z,47.60
2018-07-30T13:12:26.321Z,48.70
2018-07-30T13:14:54.815Z,47.50
2018-07-30T13:17:23.354Z,47.00
2018-07-30T13:19:51.800Z,46.90
2018-07-30T13:22:20.218Z,46.50
2018-07-30T13:24:48.731Z,46.70
2018-07-30T13:27:17.311Z,47.30
2018-07-30T13:29:45.860Z,44.80
2018-07-30T13:32:14.401Z,45.60
2018-07-30T13:34:42.867Z,46.40
2018-07-30T13:37:11.429Z,47.30
2018-07-30T13:39:39.815Z,46.30
2018-07-30T13:42:08.280Z,47.90
2018-07-30T13:44:36.744Z,47.80
2018-07-30T13:47:05.943Z,46.80
2018-07-30T13:49:35.606Z,44.90
2018-07-30T13:52:04.799Z,45.50
2018-07-30T13:54:33.280Z,46.50
2018-07-30T13:57:01.915Z,47.00
2018-07-30T13:59:30.336Z,47.30
2018-07-30T14:01:58.771Z,46.60
2018-07-30T14:04:27.895Z,46.00
2018-07-30T14:06:57.808Z,48.10
2018-07-30T14:09:26.332Z,46.90
2018-07-30T14:11:54.706Z,45.00
2018-07-30T14:14:23.041Z,44.50
2018-07-30T14:16:51.474Z,45.70
2018-07-30T14:19:19.842Z,45.70
2018-07-30T14:21:48.363Z,45.20
2018-07-30T14:24:16.688Z,45.70
2018-07-30T14:26:45.113Z,45.60
2018-07-30T14:29:13.533Z,44.60
2018-07-30T14:31:42.049Z,46.00
2018-07-30T14:34:10.486Z,46.50
2018-07-30T14:36:38.976Z,46.30
2018-07-30T14:39:09.491Z,46.60
2018-07-30T14:41:37.973Z,45.80
2018-07-30T14:44:07.169Z,46.20
2018-07-30T14:46:36.055Z,46.30
2018-07-30T14:49:04.568Z,46.30
2018-07-30T14:51:33.210Z,46.70
2018-07-30T14:54:02.178Z,45.80
2018-07-30T14:56:30.649Z,46.10
2018-07-30T14:58:59.606Z,44.90
2018-07-30T15:01:28.896Z,43.50
2018-07-30T15:03:57.967Z,44.40
2018-07-30T15:06:28.390Z,44.60
2018-07-30T15:08:57.164Z,44.90
2018-07-30T15:11:26.448Z,43.20
2018-07-30T15:13:54.848Z,42.80
2018-07-30T15:16:23.348Z,42.50
2018-07-30T15:18:51.967Z,42.40
2018-07-30T15:21:21.476Z,41.90
2018-07-30T15:23:49.948Z,39.00
2018-07-30T15:26:18.392Z,40.20
2018-07-30T15:28:46.887Z,42.10
2018-07-30T15:31:15.737Z,41.40
2018-07-30T15:33:44.121Z,42.20
2018-07-30T15:36:12.569Z,39.50
2018-07-30T15:38:41.523Z,40.30
2018-07-30T15:41:10.554Z,40.90
2018-07-30T15:43:39.066Z,40.00
2018-07-30T15:46:07.989Z,41.20
2018-07-30T15:52:34.360Z,40.30
2018-07-30T15:55:03.909Z,40.80
2018-07-30T15:57:33.013Z,43.60
2018-07-30T16:02:30.509Z,43.70
2018-07-30T16:04:59.062Z,43.70
2018-07-30T16:07:28.139Z,45.10
2018-07-30T16:09:58.523Z,46.20
2018-07-30T16:12:27.939Z,46.30
2018-07-30T16:14:56.461Z,46.50
2018-07-30T16:17:24.788Z,45.70
2018-07-30T16:19:53.238Z,45.10
2018-07-30T16:22:21.675Z,44.70
2018-07-30T16:24:50.152Z,44.80
2018-07-30T16:27:18.506Z,46.20
2018-07-30T16:29:51.129Z,46.30
2018-07-30T16:32:20.365Z,46.60
2018-07-30T16:34:48.910Z,45.90
2018-07-30T16:37:17.406Z,45.60
2018-07-30T16:46:44.431Z,45.20
2018-07-30T16:49:12.955Z,47.40
2018-07-30T16:51:41.394Z,47.40
2018-07-30T16:54:09.836Z,47.90
2018-07-30T16:56:38.729Z,48.10
2018-07-30T16:59:07.135Z,47.80
2018-07-30T17:01:35.685Z,47.50
2018-07-30T17:04:04.122Z,47.40
2018-07-30T17:06:32.828Z,47.30
2018-07-30T17:09:01.260Z,46.70
2018-07-30T17:11:29.752Z,46.20
2018-07-30T17:13:58.548Z,46.40
2018-07-30T17:16:27.671Z,47.80
2018-07-30T17:18:56.658Z,48.30
2018-07-30T17:21:25.107Z,49.10
2018-07-30T17:23:53.475Z,49.50
2018-07-30T17:26:21.998Z,49.30
2018-07-30T17:28:50.439Z,49.60
2018-07-30T17:31:19.885Z,50.10
2018-07-30T17:33:48.287Z,50.40
2018-07-30T17:36:16.748Z,51.40
2018-07-30T17:38:45.184Z,51.00
2018-07-30T17:41:14.693Z,51.70
2018-07-30T17:43:43.062Z,51.20
2018-07-30T17:46:11.866Z,51.60
2018-07-30T17:48:40.325Z,51.20
2018-07-30T17:51:09.867Z,52.30
2018-07-30T17:53:38.294Z,51.50
2018-07-30T17:56:06.794Z,53.30
2018-07-30T17:58:35.143Z,52.80
2018-07-30T18:01:03.665Z,52.10
2018-07-30T18:03:32.114Z,51.60
2018-07-30T18:06:00.513Z,51.20
2018-07-30T18:08:28.939Z,51.70
2018-07-30T18:10:57.972Z,51.20
2018-07-30T18:13:26.521Z,52.00
2018-07-30T18:15:56.673Z,52.50
2018-07-30T18:18:25.058Z,53.60
2018-07-30T18:20:53.557Z,53.40
2018-07-30T18:23:21.908Z,52.60
2018-07-30T18:25:50.515Z,51.60
2018-07-30T18:28:19.169Z,52.20
2018-07-30T18:30:50.267Z,51.90
2018-07-30T18:33:18.653Z,51.10
2018-07-30T18:35:47.376Z,51.00
2018-07-30T18:38:15.745Z,50.90
2018-07-30T18:40:45.243Z,53.50
2018-07-30T18:43:13.839Z,53.80
2018-07-30T18:45:43.306Z,54.00
2018-07-30T18:48:11.755Z,53.80
2018-07-30T18:50:41.218Z,53.40
2018-07-30T18:53:10.007Z,52.60
2018-07-30T18:55:38.435Z,53.70
2018-07-30T18:58:06.813Z,53.50
2018-07-30T19:00:35.377Z,53.70
2018-07-30T19:03:03.820Z,53.50
2018-07-30T19:05:32.324Z,53.40
2018-07-30T19:08:00.689Z,53.20
2018-07-30T19:10:29.474Z,53.20
2018-07-30T19:12:58.733Z,54.30
2018-07-30T19:15:27.788Z,53.90
2018-07-30T19:17:56.761Z,53.70
2018-07-30T19:20:25.183Z,54.10
2018-07-30T19:22:53.647Z,54.80
2018-07-30T19:25:22.067Z,54.60
2018-07-30T19:27:50.472Z,54.50
2018-07-30T19:30:19.295Z,54.60
2018-07-30T19:32:47.700Z,54.40
2018-07-30T19:35:16.147Z,54.70
2018-07-30T19:37:44.822Z,54.20
2018-07-30T19:40:13.282Z,54.70
2018-07-30T19:42:41.693Z,54.50
2018-07-30T19:45:10.213Z,54.60
2018-07-30T19:47:38.615Z,54.50
2018-07-30T19:50:08.119Z,54.30
2018-07-30T19:52:36.869Z,54.40
2018-07-30T19:55:05.461Z,53.70
2018-07-30T19:57:33.951Z,54.00
2018-07-30T20:00:02.948Z,54.30
2018-07-30T20:02:31.295Z,54.30
2018-07-30T20:04:59.713Z,54.70
2018-07-30T20:07:28.834Z,54.50
2018-07-30T20:09:58.001Z,54.40
2018-07-30T20:12:26.556Z,54.50
2018-07-30T20:14:55.031Z,54.10
2018-07-30T20:17:23.443Z,53.60
2018-07-30T20:19:52.831Z,53.30
2018-07-30T20:22:21.242Z,53.10
2018-07-30T20:24:49.764Z,53.20
2018-07-30T20:27:18.325Z,52.80
2018-07-30T20:29:47.175Z,52.80
2018-07-30T20:32:15.595Z,52.30
2018-07-30T20:37:12.041Z,52.40
2018-07-30T20:42:09.613Z,52.20
2018-07-30T20:44:38.163Z,52.60
2018-07-30T20:47:06.706Z,52.80
2018-07-30T20:49:36.150Z,52.70
2018-07-30T20:52:04.608Z,52.10
2018-07-30T20:54:33.035Z,52.30
2018-07-30T20:57:01.476Z,52.20
2018-07-30T20:59:29.922Z,52.00
2018-07-30T21:01:58.810Z,52.20
2018-07-30T21:04:27.942Z,52.60
2018-07-30T21:06:57.436Z,51.90
2018-07-30T21:09:25.829Z,52.60
2018-07-30T21:11:54.194Z,52.40
2018-07-30T21:14:22.586Z,51.90
2018-07-30T21:16:50.938Z,51.80
2018-07-30T21:19:19.341Z,51.70
2018-07-30T21:21:48.056Z,52.40
2018-07-30T21:24:16.457Z,51.80
2018-07-30T21:26:44.871Z,51.80
2018-07-30T21:29:14.340Z,51.80
2018-07-30T21:31:42.776Z,52.40
2018-07-30T21:34:11.591Z,51.80
2018-07-30T21:36:40.041Z,51.70
2018-07-30T21:39:10.716Z,52.20
2018-07-30T21:41:39.824Z,52.20
2018-07-30T21:44:09.450Z,51.90
2018-07-30T21:46:38.424Z,51.90
2018-07-30T21:49:06.877Z,52.10
2018-07-30T21:51:35.243Z,51.60
2018-07-30T21:54:03.890Z,52.10
2018-07-30T21:56:32.479Z,51.00
2018-07-30T22:01:29.364Z,52.10
2018-07-30T22:03:58.534Z,52.10
2018-07-30T22:06:27.486Z,50.50
2018-07-30T22:08:56.610Z,51.90
2018-07-30T22:11:24.949Z,51.80
2018-07-30T22:13:53.388Z,52.10
2018-07-30T22:16:21.784Z,52.00
2018-07-30T22:18:50.196Z,51.70
2018-07-30T22:21:18.577Z,52.20
2018-07-30T22:23:47.022Z,53.00
2018-07-30T22:26:15.459Z,53.20
2018-07-30T22:31:11.987Z,53.20
2018-07-30T22:33:41.498Z,53.20
2018-07-30T22:36:09.881Z,53.60
2018-07-30T22:38:38.290Z,53.70
2018-07-30T22:41:06.883Z,52.60
2018-07-30T22:43:35.717Z,53.70
2018-07-30T22:46:04.234Z,53.10
2018-07-30T22:48:32.770Z,52.80
2018-07-30T22:51:01.172Z,53.40
2018-07-30T22:53:29.740Z,53.60
2018-07-30T22:55:58.855Z,54.00
2018-07-30T22:58:28.310Z,54.30
2018-07-30T23:00:56.779Z,55.30
2018-07-30T23:03:25.187Z,54.10
2018-07-30T23:05:53.537Z,54.30
2018-07-30T23:08:22.014Z,54.40
2018-07-30T23:10:50.428Z,54.70
2018-07-30T23:13:20.156Z,54.90
2018-07-30T23:15:48.550Z,55.10
2018-07-30T23:18:17.049Z,55.30
2018-07-30T23:20:45.441Z,55.40
2018-07-30T23:23:13.922Z,55.10
2018-07-30T23:25:42.627Z,55.40
2018-07-30T23:28:11.151Z,55.00
2018-07-30T23:30:39.649Z,54.80
2018-07-30T23:33:08.216Z,55.00
2018-07-30T23:35:36.606Z,55.00
2018-07-30T23:38:05.227Z,55.10
2018-07-30T23:40:33.670Z,54.80
2018-07-30T23:43:02.154Z,55.10
2018-07-30T23:45:30.528Z,55.30
2018-07-30T23:47:59.067Z,55.00
2018-07-30T23:50:28.401Z,55.60
2018-07-30T23:52:57.883Z,55.60
2018-07-30T23:55:26.790Z,55.90
2018-07-30T23:57:55.356Z,55.00
